Time;durP1;ratioP1;P1;durP2;ratioP2;P2;SDS_P1;SDS_P2;PMS_P1;PMS_P2;Temp;Humidity;BMP_temperature;BMP_pressure;BME280_temperature;BME280_humidity;BME280_pressure;Samples;Min_cycle;Max_cycle;Signal;HPM_P1;HPM_P2
2022/06/02 00:00:14;;;;;;;3.80;1.20;;;11.50;99.90;;;;;;5078141;28;20087;-77
2022/06/02 00:03:03;;;;;;;5.07;1.35;;;11.50;99.90;;;;;;5113629;28;20047;-77
2022/06/02 00:05:50;;;;;;;4.90;1.42;;;11.50;99.90;;;;;;5097531;28;20815;-78
2022/06/02 00:08:49;;;;;;;3.80;1.23;;;11.50;99.90;;;;;;5112875;28;20070;-79
2022/06/02 00:11:46;;;;;;;5.18;1.10;;;11.50;99.90;;;;;;5113783;28;20070;-78
2022/06/02 00:14:15;;;;;;;3.90;1.27;;;11.50;99.90;;;;;;5093553;28;20044;-77
2022/06/02 00:16:56;;;;;;;4.93;1.10;;;11.50;99.90;;;;;;5094051;28;20052;-80
2022/06/02 00:19:45;;;;;;;1.90;0.85;;;11.40;99.90;;;;;;5113165;28;20384;-78
2022/06/02 00:22:28;;;;;;;6.93;1.10;;;11.50;99.90;;;;;;5096013;28;20052;-79
2022/06/02 00:25:02;;;;;;;3.92;1.15;;;11.50;99.90;;;;;;5093888;28;20494;-79
2022/06/02 00:27:43;;;;;;;4.25;1.40;;;11.50;99.90;;;;;;5112276;28;20052;-79
2022/06/02 00:30:22;;;;;;;4.28;1.10;;;11.50;99.90;;;;;;5093749;28;20120;-78
2022/06/02 00:33:25;;;;;;;5.30;1.30;;;11.50;99.90;;;;;;5093750;28;20055;-77
2022/06/02 00:35:56;;;;;;;5.55;1.15;;;11.50;99.90;;;;;;5093612;28;20097;-77
2022/06/02 00:38:34;;;;;;;3.10;1.00;;;11.50;99.90;;;;;;5076872;28;20055;-79
2022/06/02 00:41:24;;;;;;;2.72;0.93;;;11.50;99.90;;;;;;5111984;28;20054;-79
2022/06/02 00:43:50;;;;;;;3.05;0.82;;;11.50;99.90;;;;;;5101869;28;20126;-78
2022/06/02 00:46:34;;;;;;;2.58;1.00;;;11.50;99.90;;;;;;5112471;28;20135;-79
2022/06/02 00:49:16;;;;;;;6.80;1.25;;;11.50;99.90;;;;;;5093754;28;20047;-79
2022/06/02 00:51:51;;;;;;;4.88;1.00;;;11.50;99.90;;;;;;5093662;28;20058;-80
2022/06/02 00:57:37;;;;;;;2.17;0.90;;;11.50;99.90;;;;;;5111768;28;20059;-81
2022/06/02 01:00:35;;;;;;;3.80;1.02;;;11.50;99.90;;;;;;5112775;28;20044;-79
2022/06/02 01:03:13;;;;;;;2.13;0.73;;;11.50;99.90;;;;;;5111473;28;20051;-79
2022/06/02 01:06:27;;;;;;;4.75;1.75;;;11.50;99.90;;;;;;5093386;28;20051;-79
2022/06/02 01:09:02;;;;;;;5.47;1.02;;;11.50;99.90;;;;;;5040379;28;20055;-77
2022/06/02 01:11:55;;;;;;;3.72;1.00;;;11.50;99.90;;;;;;5116335;28;20502;-77
2022/06/02 01:14:39;;;;;;;4.10;0.80;;;11.50;99.90;;;;;;5096920;28;20450;-77
2022/06/02 01:17:36;;;;;;;3.25;1.00;;;11.50;99.90;;;;;;5072525;28;20144;-77
2022/06/02 01:20:28;;;;;;;2.00;0.73;;;11.50;99.90;;;;;;5091075;28;20040;-78
2022/06/02 01:23:16;;;;;;;3.13;1.05;;;11.50;99.90;;;;;;5072998;28;20181;-78
2022/06/02 01:25:57;;;;;;;3.63;1.10;;;11.50;99.90;;;;;;5090871;28;20044;-78
2022/06/02 01:28:38;;;;;;;3.47;1.00;;;11.50;99.90;;;;;;5072437;28;20555;-79
2022/06/02 01:31:22;;;;;;;3.13;0.85;;;11.50;99.90;;;;;;5091076;28;20040;-80
2022/06/02 01:34:09;;;;;;;2.17;0.80;;;11.50;99.90;;;;;;5072461;28;20064;-76
2022/06/02 01:36:59;;;;;;;3.78;0.90;;;11.50;99.90;;;;;;5073070;28;20052;-76
2022/06/02 01:39:32;;;;;;;2.70;0.60;;;11.40;99.90;;;;;;5056588;28;20056;-77
2022/06/02 01:41:58;;;;;;;2.33;0.60;;;11.50;99.90;;;;;;5090654;28;20388;-80
2022/06/02 01:44:36;;;;;;;2.83;0.98;;;11.40;99.90;;;;;;5072884;28;20139;-80
2022/06/02 01:47:19;;;;;;;1.83;0.73;;;11.40;99.90;;;;;;5092505;28;20059;-79
2022/06/02 01:50:15;;;;;;;2.47;0.73;;;11.40;99.90;;;;;;5072737;28;20056;-77
2022/06/02 01:52:56;;;;;;;3.70;0.98;;;11.40;99.90;;;;;;5090681;28;20048;-80
2022/06/02 01:56:00;;;;;;;4.28;1.00;;;11.40;99.90;;;;;;5072009;28;20056;-79
2022/06/02 01:58:56;;;;;;;4.30;1.00;;;11.40;99.90;;;;;;5055920;28;20052;-78
2022/06/02 02:01:32;;;;;;;3.45;0.90;;;11.50;99.90;;;;;;5072130;28;20503;-78
2022/06/02 02:04:29;;;;;;;3.33;1.17;;;11.50;99.90;;;;;;5090633;28;20153;-77
2022/06/02 02:07:01;;;;;;;1.98;0.80;;;11.50;99.90;;;;;;5072519;28;20503;-81
2022/06/02 02:09:35;;;;;;;4.03;1.42;;;11.50;99.90;;;;;;5090330;28;20060;-79
2022/06/02 02:12:03;;;;;;;3.28;1.08;;;11.40;99.90;;;;;;5072151;28;20055;-78
2022/06/02 02:14:38;;;;;;;4.22;1.48;;;11.40;99.90;;;;;;5090097;28;20396;-76
2022/06/02 02:17:25;;;;;;;;;;;11.40;99.90;;;;;;5095801;28;20040;-79
2022/06/02 02:20:24;;;;;;;20.48;2.10;;;11.30;99.90;;;;;;5072178;28;19966;-77
2022/06/02 02:23:21;;;;;;;3.50;1.27;;;11.30;99.90;;;;;;5069612;28;20044;-78
2022/06/02 02:26:04;;;;;;;3.67;1.27;;;11.30;99.90;;;;;;5087605;28;20048;-80
2022/06/02 02:32:46;;;;;;;6.97;1.45;;;11.20;99.90;;;;;;5094117;28;20476;-81
2022/06/02 02:35:21;;;;;;;3.90;1.00;;;11.30;99.90;;;;;;5093991;28;20087;-76
2022/06/02 02:37:57;;;;;;;6.03;1.60;;;11.20;99.90;;;;;;5075515;28;20048;-80
2022/06/02 02:40:51;;;;;;;5.05;1.90;;;11.20;99.90;;;;;;5094025;28;20135;-80
2022/06/02 02:43:28;;;;;;;3.75;1.85;;;11.00;99.90;;;;;;5102315;28;20048;-80
2022/06/02 02:46:04;;;;;;;9.55;2.80;;;11.00;99.90;;;;;;5060283;28;20136;-81
2022/06/02 02:48:49;;;;;;;6.35;2.90;;;10.80;99.90;;;;;;5093471;28;20052;-80
2022/06/02 02:51:53;;;;;;;6.28;2.97;;;10.70;99.90;;;;;;5093729;28;20082;-80
2022/06/02 02:54:31;;;;;;;6.13;3.60;;;10.60;99.90;;;;;;5044484;28;20517;-79
2022/06/02 02:57:09;;;;;;;8.07;4.07;;;10.50;99.90;;;;;;5075666;28;20048;-80
2022/06/02 03:00:06;;;;;;;6.90;3.50;;;10.40;99.90;;;;;;5093226;28;20060;-77
2022/06/02 03:02:35;;;;;;;6.95;3.70;;;10.30;99.90;;;;;;5075467;28;20051;-80
2022/06/02 03:09:08;;;;;;;6.78;3.78;;;10.20;99.90;;;;;;5095173;28;20101;-77
2022/06/02 03:11:42;;;;;;;7.93;3.70;;;10.20;99.90;;;;;;5061033;28;20059;-80
2022/06/02 03:14:26;;;;;;;9.33;3.33;;;10.10;99.90;;;;;;5075836;28;20101;-80
2022/06/02 03:20:51;;;;;;;7.40;3.50;;;10.10;99.90;;;;;;5092759;28;20269;-75
2022/06/02 03:23:48;;;;;;;6.93;3.63;;;10.00;99.90;;;;;;5074606;28;20087;-79
2022/06/02 03:26:25;;;;;;;7.18;3.00;;;10.00;99.90;;;;;;5093410;28;20060;-79
2022/06/02 03:29:03;;;;;;;8.95;3.90;;;10.10;99.90;;;;;;5074360;28;20427;-77
2022/06/02 03:31:52;;;;;;;9.05;3.85;;;10.00;99.90;;;;;;5092720;28;20066;-78
2022/06/02 03:34:50;;;;;;;6.35;3.22;;;10.10;99.90;;;;;;5092586;28;20044;-79
2022/06/02 03:37:22;;;;;;;6.32;3.45;;;10.10;99.90;;;;;;5092454;28;20432;-80
2022/06/02 03:39:57;;;;;;;5.47;3.08;;;10.10;99.90;;;;;;5074400;28;20044;-77
2022/06/02 03:42:38;;;;;;;6.40;3.30;;;10.10;99.90;;;;;;5074209;28;20066;-76
2022/06/02 03:45:38;;;;;;;5.70;3.10;;;10.20;99.90;;;;;;5075382;28;20062;-77
2022/06/02 03:48:37;;;;;;;5.18;2.83;;;10.20;99.90;;;;;;5022231;28;20044;-79
2022/06/02 03:51:20;;;;;;;6.07;3.35;;;10.10;99.90;;;;;;5096354;28;20051;-77
2022/06/02 03:54:07;;;;;;;6.03;3.40;;;10.10;99.90;;;;;;5092419;28;20127;-76
2022/06/02 03:56:43;;;;;;;5.88;4.07;;;10.00;99.90;;;;;;5073827;28;20143;-79
2022/06/02 03:59:45;;;;;;;6.05;3.50;;;10.00;99.90;;;;;;5091952;28;20048;-77
2022/06/02 04:02:16;;;;;;;6.53;3.05;;;10.00;99.90;;;;;;5074283;28;20048;-77
2022/06/02 04:05:19;;;;;;;5.50;3.00;;;10.00;99.90;;;;;;5074249;28;20135;-77
2022/06/02 04:08:23;;;;;;;7.03;3.17;;;10.10;99.90;;;;;;5092999;28;20047;-79
2022/06/02 04:11:11;;;;;;;5.57;3.05;;;10.10;99.90;;;;;;5099225;28;20052;-76
2022/06/02 04:13:59;;;;;;;7.07;3.45;;;10.10;99.90;;;;;;5073317;28;20052;-77
2022/06/02 04:16:58;;;;;;;5.22;3.17;;;10.10;99.90;;;;;;5092224;28;20125;-78
2022/06/02 04:22:30;;;;;;;6.18;3.08;;;10.20;99.90;;;;;;5091965;28;20048;-77
2022/06/02 04:25:17;;;;;;;7.15;3.05;;;10.10;99.90;;;;;;5092058;28;20396;-77
2022/06/02 04:28:00;;;;;;;7.30;3.05;;;10.30;99.90;;;;;;5093530;28;20052;-78
2022/06/02 04:30:41;;;;;;;5.05;2.47;;;10.30;99.90;;;;;;5091375;28;20514;-79
2022/06/02 04:33:22;;;;;;;5.43;2.92;;;10.40;99.90;;;;;;5091818;28;20056;-79
2022/06/02 04:36:23;;;;;;;4.95;2.38;;;10.50;99.90;;;;;;5062557;28;20055;-76
2022/06/02 04:39:09;;;;;;;5.50;1.77;;;10.50;99.90;;;;;;5056424;28;20054;-79
2022/06/02 04:42:00;;;;;;;5.20;1.70;;;10.70;99.90;;;;;;5073812;28;20442;-78
2022/06/02 04:44:59;;;;;;;5.85;1.60;;;10.90;99.90;;;;;;5090993;28;20044;-79
2022/06/02 04:47:48;;;;;;;3.67;1.55;;;11.00;99.90;;;;;;5073251;28;20055;-78
2022/06/02 04:50:29;;;;;;;4.50;1.50;;;11.10;99.90;;;;;;5091585;28;20055;-80
2022/06/02 04:53:09;;;;;;;6.25;1.30;;;11.30;99.90;;;;;;5091122;28;20404;-78
2022/06/02 04:56:12;;;;;;;6.03;1.30;;;11.40;99.90;;;;;;5072866;28;20084;-76
2022/06/02 04:59:07;;;;;;;5.63;1.88;;;11.40;99.90;;;;;;5091051;28;20055;-77
2022/06/02 05:01:58;;;;;;;6.25;1.20;;;11.40;99.90;;;;;;5056050;28;20044;-78
2022/06/02 05:04:33;;;;;;;7.03;1.50;;;11.50;99.90;;;;;;5072921;28;20057;-77
2022/06/02 05:07:21;;;;;;;5.13;1.17;;;11.60;99.90;;;;;;5091221;28;20052;-76
2022/06/02 05:10:07;;;;;;;5.72;1.60;;;11.70;99.90;;;;;;5074849;28;20085;-77
2022/06/02 05:12:54;;;;;;;4.78;1.40;;;11.70;99.90;;;;;;5075730;28;20063;-77
2022/06/02 05:15:38;;;;;;;5.32;1.50;;;11.80;99.90;;;;;;5090505;28;20079;-78
2022/06/02 05:18:24;;;;;;;6.18;1.83;;;11.90;99.90;;;;;;5072857;28;20495;-77
2022/06/02 05:21:07;;;;;;;5.32;1.63;;;12.00;99.90;;;;;;5090841;28;20044;-77
2022/06/02 05:23:54;;;;;;;5.30;1.63;;;12.10;99.90;;;;;;5056163;28;20052;-78
2022/06/02 05:26:57;;;;;;;10.30;2.05;;;12.10;99.90;;;;;;5091363;28;20051;-79
2022/06/02 05:29:26;;;;;;;3.25;1.33;;;12.20;99.90;;;;;;5091334;28;20044;-79
2022/06/02 05:32:10;;;;;;;13.85;2.28;;;12.20;99.90;;;;;;5090688;28;20052;-77
2022/06/02 05:34:50;;;;;;;5.05;1.30;;;12.30;99.90;;;;;;5091111;28;20071;-76
2022/06/02 05:37:25;;;;;;;5.05;1.30;;;12.30;99.90;;;;;;5090728;28;20063;-77
2022/06/02 05:39:56;;;;;;;6.05;1.33;;;12.40;99.90;;;;;;5072404;28;20044;-74
2022/06/02 05:43:06;;;;;;;5.50;1.35;;;12.50;99.90;;;;;;5072938;28;20059;-76
2022/06/02 05:45:53;;;;;;;5.53;1.60;;;12.70;99.90;;;;;;5010758;28;20128;-77
2022/06/02 05:49:04;;;;;;;3.75;1.58;;;12.80;99.90;;;;;;5092479;28;20406;-77
2022/06/02 05:52:01;;;;;;;5.13;1.80;;;13.00;99.90;;;;;;4989644;28;20061;-78
2022/06/02 05:54:47;;;;;;;3.00;1.30;;;13.00;99.90;;;;;;5072340;28;20048;-77
2022/06/02 05:57:31;;;;;;;7.00;1.55;;;12.90;99.90;;;;;;5074999;28;20130;-77
2022/06/02 06:00:25;;;;;;;5.28;1.42;;;13.00;99.90;;;;;;5094074;28;20384;-78
2022/06/02 06:03:29;;;;;;;6.03;1.30;;;13.20;99.90;;;;;;5076281;28;20040;-78
2022/06/02 06:06:22;;;;;;;5.35;1.40;;;13.40;99.90;;;;;;5076539;28;20083;-78
2022/06/02 06:08:57;;;;;;;3.67;0.82;;;13.40;99.90;;;;;;5037038;28;20090;-77
2022/06/02 06:11:52;;;;;;;5.10;1.80;;;13.40;99.90;;;;;;5080548;28;20449;-77
2022/06/02 06:14:23;;;;;;;;;;;13.40;99.90;;;;;;5062126;28;20064;-79
2022/06/02 06:17:15;;;;;;;7.88;1.48;;;13.50;99.90;;;;;;5094221;28;19969;-77
2022/06/02 06:19:56;;;;;;;4.45;1.42;;;13.60;99.90;;;;;;5093629;28;20079;-76
2022/06/02 06:22:50;;;;;;;3.95;1.55;;;13.60;99.90;;;;;;5075280;28;20105;-77
2022/06/02 06:25:31;;;;;;;6.47;1.17;;;13.60;99.90;;;;;;5058931;28;20128;-78
2022/06/02 06:28:02;;;;;;;5.28;1.40;;;13.50;99.90;;;;;;5075109;28;20444;-77
2022/06/02 06:30:50;;;;;;;4.60;1.67;;;13.50;99.90;;;;;;5094200;28;20071;-78
2022/06/02 06:33:37;;;;;;;4.47;1.52;;;13.60;99.90;;;;;;5076411;28;20340;-77
2022/06/02 06:36:40;;;;;;;6.22;1.50;;;13.80;99.90;;;;;;5076696;28;20488;-78
2022/06/02 06:39:26;;;;;;;4.20;1.30;;;14.00;99.90;;;;;;5094380;28;20527;-76
2022/06/02 06:42:12;;;;;;;3.80;1.00;;;14.10;99.90;;;;;;5076657;28;20197;-76
2022/06/02 06:44:52;;;;;;;4.90;1.40;;;14.20;99.90;;;;;;5075556;28;20044;-79
2022/06/02 06:47:29;;;;;;;3.63;1.40;;;14.20;99.90;;;;;;5093773;28;20055;-79
2022/06/02 06:50:10;;;;;;;6.38;1.90;;;14.10;99.90;;;;;;5075345;28;20059;-80
2022/06/02 06:53:00;;;;;;;4.80;1.02;;;14.20;99.90;;;;;;5093696;28;20079;-81
2022/06/02 06:55:47;;;;;;;4.93;1.40;;;14.30;99.90;;;;;;5093276;28;20499;-77
2022/06/02 06:58:53;;;;;;;4.25;1.33;;;14.60;99.90;;;;;;5076185;28;20066;-77
2022/06/02 07:01:42;;;;;;;;;;;14.70;99.90;;;;;;5093717;28;20044;-79
2022/06/02 07:04:26;;;;;;;2.95;1.30;;;14.60;99.90;;;;;;5021596;28;20011;-78
2022/06/02 07:07:12;;;;;;;4.93;1.17;;;15.00;99.90;;;;;;5058014;28;20080;-80
2022/06/02 07:09:47;;;;;;;2.70;1.00;;;15.10;99.90;;;;;;5092526;28;20479;-79
2022/06/02 07:12:51;;;;;;;3.28;1.17;;;15.10;99.90;;;;;;5093321;28;20044;-78
2022/06/02 07:15:45;;;;;;;7.13;1.17;;;15.20;99.90;;;;;;5049609;28;20131;-81
2022/06/02 07:18:22;;;;;;;4.15;1.30;;;15.40;99.90;;;;;;5092698;28;20044;-80
2022/06/02 07:21:31;;;;;;;5.13;1.40;;;15.40;99.90;;;;;;5074612;28;20129;-82
2022/06/02 07:24:23;;;;;;;8.02;1.40;;;15.30;99.90;;;;;;5092834;28;20052;-80
2022/06/02 07:26:59;;;;;;;6.60;1.73;;;15.40;99.90;;;;;;5074820;28;20086;-78
2022/06/02 07:29:48;;;;;;;4.38;1.15;;;15.50;99.90;;;;;;5075154;28;20067;-80
2022/06/02 07:32:55;;;;;;;6.80;1.20;;;15.30;99.90;;;;;;5075169;28;20059;-78
2022/06/02 07:35:52;;;;;;;4.72;1.38;;;15.60;99.90;;;;;;5092422;28;20141;-78
2022/06/02 07:38:45;;;;;;;4.97;1.30;;;15.70;99.90;;;;;;5092568;28;20496;-78
2022/06/02 07:41:40;;;;;;;5.60;1.17;;;15.90;99.90;;;;;;5074284;28;20051;-79
2022/06/02 07:44:51;;;;;;;5.78;1.17;;;15.80;99.90;;;;;;5074339;28;20488;-79
2022/06/02 07:47:24;;;;;;;15.18;2.78;;;15.70;99.90;;;;;;5069406;28;20048;-79
2022/06/02 07:50:14;;;;;;;4.13;1.15;;;15.90;99.90;;;;;;5092224;28;20044;-79
2022/06/02 07:52:40;;;;;;;8.40;1.48;;;15.90;99.90;;;;;;5092051;28;20127;-79
2022/06/02 07:55:43;;;;;;;18.77;2.60;;;16.00;99.90;;;;;;5092482;28;20144;-77
2022/06/02 07:58:27;;;;;;;8.07;1.35;;;15.90;99.90;;;;;;5073556;28;20447;-78
2022/06/02 08:00:53;;;;;;;5.35;1.10;;;15.90;99.90;;;;;;5092293;28;20044;-76
2022/06/02 08:03:33;;;;;;;5.93;1.20;;;16.00;99.90;;;;;;5074506;28;20121;-77
2022/06/02 08:06:08;;;;;;;4.60;1.00;;;16.00;99.90;;;;;;5092010;28;20048;-80
2022/06/02 08:08:39;;;;;;;2.38;0.80;;;16.30;99.90;;;;;;5092385;28;20071;-77
2022/06/02 08:11:14;;;;;;;4.40;1.15;;;16.30;99.90;;;;;;5091927;28;20052;-78
2022/06/02 08:14:04;;;;;;;5.10;1.08;;;16.40;99.90;;;;;;5091407;28;20052;-80
2022/06/02 08:16:48;;;;;;;3.03;1.13;;;16.40;99.90;;;;;;5091810;28;20055;-78
2022/06/02 08:19:25;;;;;;;2.93;1.20;;;16.50;99.90;;;;;;5091029;28;20503;-80
2022/06/02 08:22:01;;;;;;;3.90;1.02;;;16.40;99.90;;;;;;5057358;28;20055;-79
2022/06/02 08:24:45;;;;;;;4.72;1.10;;;16.30;99.90;;;;;;5073561;28;20123;-79
2022/06/02 08:27:26;;;;;;;3.45;0.93;;;16.50;99.90;;;;;;5092023;28;20040;-79
2022/06/02 08:30:14;;;;;;;7.00;1.88;;;16.60;99.90;;;;;;5073198;28;20048;-79
2022/06/02 08:32:58;;;;;;;7.10;1.67;;;16.70;99.90;;;;;;5091733;28;20040;-80
2022/06/02 08:35:27;;;;;;;5.57;1.08;;;16.80;99.90;;;;;;5091084;28;20052;-79
2022/06/02 08:38:20;;;;;;;4.20;1.00;;;16.70;99.90;;;;;;5091876;28;20064;-80
2022/06/02 08:44:01;;;;;;;4.35;1.17;;;16.70;99.90;;;;;;5091292;28;20044;-76
2022/06/02 08:46:48;;;;;;;4.20;1.00;;;16.90;99.90;;;;;;5073370;28;20052;-80
2022/06/02 08:49:20;;;;;;;4.20;1.13;;;17.20;99.90;;;;;;5091490;28;20048;-77
2022/06/02 08:52:20;;;;;;;8.43;1.33;;;17.30;99.90;;;;;;5073206;28;20127;-77
2022/06/02 08:55:07;;;;;;;3.13;1.10;;;17.30;99.90;;;;;;5091924;28;20496;-79
2022/06/02 08:58:11;;;;;;;5.63;1.13;;;17.60;99.90;;;;;;5078327;28;20079;-79
2022/06/02 09:00:55;;;;;;;4.82;0.95;;;17.70;99.90;;;;;;5093753;28;20487;-77
2022/06/02 09:03:58;;;;;;;12.13;2.22;;;17.60;99.90;;;;;;5073167;28;20052;-78
2022/06/02 09:06:38;;;;;;;7.88;1.83;;;17.70;99.90;;;;;;5073249;28;20047;-80
2022/06/02 09:09:18;;;;;;;5.40;1.60;;;17.80;99.90;;;;;;5073185;28;20120;-78
2022/06/02 09:12:16;;;;;;;4.53;1.40;;;17.80;99.90;;;;;;5073510;28;20093;-81
2022/06/02 09:14:51;;;;;;;6.47;1.25;;;17.50;99.90;;;;;;5090884;28;20051;-79
2022/06/02 09:17:22;;;;;;;6.72;1.30;;;17.60;99.90;;;;;;5055756;28;20127;-78
2022/06/02 09:20:12;;;;;;;7.68;1.30;;;17.70;99.90;;;;;;5073391;28;20052;-81
2022/06/02 09:22:54;;;;;;;3.75;1.17;;;18.10;99.90;;;;;;5074108;28;20058;-78
2022/06/02 09:25:41;;;;;;;6.13;1.63;;;18.10;99.90;;;;;;5091227;28;20073;-80
2022/06/02 09:28:46;;;;;;;6.00;1.80;;;18.40;99.90;;;;;;5074210;28;20055;-79
2022/06/02 09:31:39;;;;;;;4.18;0.98;;;18.30;99.90;;;;;;5093818;28;20502;-80
2022/06/02 09:34:33;;;;;;;2.55;0.93;;;18.50;99.80;;;;;;5095445;28;20090;-81
2022/06/02 09:37:01;;;;;;;5.45;1.52;;;18.50;99.90;;;;;;5077089;28;20530;-81
2022/06/02 09:39:36;;;;;;;3.50;1.00;;;18.70;99.90;;;;;;5097961;28;20055;-80
2022/06/02 09:42:17;;;;;;;4.47;1.40;;;18.70;99.40;;;;;;5095244;28;20048;-81
2022/06/02 09:45:01;;;;;;;3.92;1.13;;;18.80;99.70;;;;;;5077522;28;20048;-79
2022/06/02 09:47:35;;;;;;;6.40;1.30;;;18.90;99.30;;;;;;5077069;28;20048;-81
2022/06/02 09:50:10;;;;;;;;;;;18.70;98.10;;;;;;5095223;28;20094;-81
2022/06/02 09:52:51;;;;;;;4.43;1.20;;;18.90;99.10;;;;;;5094929;28;20035;-80
2022/06/02 09:55:32;;;;;;;4.60;1.50;;;18.90;98.30;;;;;;5094805;28;20055;-79
2022/06/02 09:58:28;;;;;;;6.93;0.93;;;19.20;98.70;;;;;;5094665;28;20518;-82
2022/06/02 10:01:01;;;;;;;3.38;0.90;;;19.60;98.10;;;;;;5097533;28;20048;-80
2022/06/02 10:04:09;;;;;;;3.78;0.88;;;19.50;97.40;;;;;;5100726;28;20086;-81
2022/06/02 10:06:52;;;;;;;4.50;1.00;;;19.30;96.50;;;;;;5094564;28;20051;-81
2022/06/02 10:09:31;;;;;;;3.85;0.73;;;19.50;97.60;;;;;;5094513;28;20135;-81
2022/06/02 10:15:20;;;;;;;5.60;1.00;;;19.60;97.20;;;;;;5093746;28;20056;-82
2022/06/02 10:18:03;;;;;;;4.78;0.90;;;19.50;97.00;;;;;;5076076;28;20048;-81
2022/06/02 10:20:47;;;;;;;5.55;1.50;;;19.60;96.50;;;;;;5094485;28;20051;-81
2022/06/02 10:23:25;;;;;;;4.07;0.95;;;19.20;97.00;;;;;;5076291;28;20044;-80
2022/06/02 10:26:18;;;;;;;6.07;1.00;;;19.70;97.10;;;;;;5098395;28;20051;-80
2022/06/02 10:28:56;;;;;;;7.35;1.20;;;19.70;97.60;;;;;;5079369;28;20048;-81
2022/06/02 10:31:40;;;;;;;4.90;0.90;;;20.10;96.80;;;;;;5076385;28;20059;-80
2022/06/02 10:34:30;;;;;;;10.57;2.05;;;19.90;95.70;;;;;;5060247;28;20056;-82
2022/06/02 10:37:18;;;;;;;4.28;0.95;;;19.90;96.40;;;;;;5009786;28;20136;-80
2022/06/02 10:40:18;;;;;;;5.18;0.90;;;20.10;95.30;;;;;;5075716;28;20182;-79
2022/06/02 10:42:56;;;;;;;7.28;1.10;;;20.20;96.00;;;;;;5092849;28;20097;-81
2022/06/02 10:45:58;;;;;;;4.18;1.20;;;20.30;95.00;;;;;;5093740;28;20102;-81
2022/06/02 10:48:44;;;;;;;4.07;0.80;;;20.40;94.80;;;;;;5093606;28;20083;-79
2022/06/02 10:51:53;;;;;;;3.55;0.90;;;20.40;94.80;;;;;;5094825;28;20052;-82
2022/06/02 10:54:25;;;;;;;6.05;1.00;;;20.50;94.80;;;;;;5096872;28;20134;-78
2022/06/02 10:57:06;;;;;;;6.65;1.40;;;20.60;94.90;;;;;;5093471;28;20083;-80
2022/06/02 11:00:00;;;;;;;4.43;0.90;;;20.90;95.30;;;;;;5076563;28;20107;-78
2022/06/02 11:03:15;;;;;;;3.17;1.00;;;20.90;95.50;;;;;;5075455;28;20087;-81
2022/06/02 11:05:59;;;;;;;3.75;1.00;;;20.90;93.10;;;;;;5036840;28;20567;-80
2022/06/02 11:08:43;;;;;;;7.55;1.58;;;21.00;93.80;;;;;;5075137;28;20055;-78
2022/06/02 11:11:24;;;;;;;4.65;0.93;;;21.00;94.50;;;;;;5075202;28;20387;-79
2022/06/02 11:14:09;;;;;;;4.97;1.00;;;21.10;94.10;;;;;;5092161;28;20087;-80
2022/06/02 11:16:55;;;;;;;;;;;20.80;94.50;;;;;;5077094;28;20102;-79
2022/06/02 11:19:58;;;;;;;4.63;1.25;;;20.60;94.10;;;;;;5061699;28;19926;-81
2022/06/02 11:23:13;;;;;;;11.45;1.17;;;20.80;94.00;;;;;;5094047;28;20052;-80
2022/06/02 11:25:59;;;;;;;6.00;0.80;;;20.80;95.10;;;;;;5076366;28;20064;-81
2022/06/02 11:28:49;;;;;;;4.80;1.10;;;21.20;95.20;;;;;;5092761;28;20048;-78
2022/06/02 11:31:33;;;;;;;5.30;1.25;;;21.40;93.30;;;;;;5094443;28;20139;-82
2022/06/02 11:34:02;;;;;;;3.07;1.00;;;21.20;94.30;;;;;;5096151;28;20052;-81
2022/06/02 11:36:56;;;;;;;4.20;0.95;;;21.70;95.20;;;;;;5093851;28;20290;-82
2022/06/02 11:39:21;;;;;;;6.03;1.30;;;21.60;92.60;;;;;;5095789;28;20059;-80
2022/06/02 11:42:35;;;;;;;6.18;1.20;;;22.10;93.10;;;;;;5098234;28;20040;-83
2022/06/02 11:45:19;;;;;;;4.45;1.10;;;21.80;91.00;;;;;;5015437;28;20052;-80
2022/06/02 11:48:01;;;;;;;3.45;0.82;;;21.90;92.70;;;;;;5093623;28;20052;-81
2022/06/02 11:51:01;;;;;;;6.05;1.27;;;22.10;93.10;;;;;;5074092;28;20048;-81
2022/06/02 11:53:35;;;;;;;4.60;1.27;;;21.90;93.00;;;;;;5091989;28;20058;-81
2022/06/02 11:56:25;;;;;;;3.30;1.52;;;22.60;92.40;;;;;;5074025;28;20166;-78
2022/06/02 11:59:06;;;;;;;4.93;1.20;;;22.50;91.70;;;;;;5095652;28;20058;-80
2022/06/02 12:01:48;;;;;;;3.88;1.00;;;22.80;91.20;;;;;;5074842;28;20048;-80
2022/06/02 12:04:45;;;;;;;5.75;1.00;;;22.60;88.10;;;;;;5075752;28;20419;-82
2022/06/02 12:07:20;;;;;;;5.53;1.40;;;22.50;90.00;;;;;;5073945;28;20048;-82
2022/06/02 12:09:58;;;;;;;6.15;1.30;;;22.90;91.00;;;;;;5092078;28;20054;-82
2022/06/02 12:12:24;;;;;;;3.88;1.17;;;23.00;90.60;;;;;;5074716;28;20101;-81
2022/06/02 12:15:27;;;;;;;4.82;1.23;;;23.00;90.00;;;;;;5057970;28;20060;-81
2022/06/02 12:18:15;;;;;;;6.78;1.02;;;22.90;90.50;;;;;;5094557;28;20080;-81
2022/06/02 12:21:05;;;;;;;4.38;1.52;;;22.70;90.20;;;;;;5092480;28;20450;-80
2022/06/02 12:23:55;;;;;;;5.30;1.48;;;23.00;91.00;;;;;;5091819;28;20090;-79
2022/06/02 12:26:42;;;;;;;6.47;1.30;;;23.50;91.20;;;;;;5075247;28;20055;-77
2022/06/02 12:29:20;;;;;;;8.73;1.52;;;23.70;90.80;;;;;;5091361;28;20059;-77
2022/06/02 12:32:11;;;;;;;8.70;1.10;;;24.10;87.70;;;;;;5091886;28;20052;-79
2022/06/02 12:35:02;;;;;;;4.93;1.05;;;23.70;81.90;;;;;;5095655;28;20070;-79
2022/06/02 12:37:31;;;;;;;4.45;1.35;;;23.90;88.90;;;;;;5095449;28;20052;-81
2022/06/02 12:40:39;;;;;;;3.67;0.98;;;24.00;86.40;;;;;;5075298;28;20084;-81
2022/06/02 12:43:27;;;;;;;5.65;0.82;;;24.20;87.10;;;;;;5055723;28;20044;-78
2022/06/02 12:49:06;;;;;;;4.97;1.00;;;24.40;79.80;;;;;;5439809;22;20065;-80
2022/06/02 12:51:59;;;;;;;3.07;0.90;;;23.90;82.20;;;;;;5048494;28;20556;-80
2022/06/02 12:54:59;;;;;;;4.38;0.90;;;24.30;84.80;;;;;;5056214;28;20101;-80
2022/06/02 12:57:46;;;;;;;5.72;1.08;;;24.40;79.60;;;;;;5070813;28;20136;-80
2022/06/02 13:00:27;;;;;;;8.13;1.40;;;24.80;79.70;;;;;;5070093;28;20059;-80
2022/06/02 13:03:20;;;;;;;4.35;1.02;;;24.80;79.50;;;;;;5052988;28;20048;-81
2022/06/02 13:06:13;;;;;;;4.82;1.10;;;24.90;75.70;;;;;;5072833;28;20054;-80
2022/06/02 13:08:41;;;;;;;3.42;0.95;;;24.90;73.00;;;;;;5054223;28;20106;-78
2022/06/02 13:11:48;;;;;;;7.55;1.30;;;24.90;76.20;;;;;;5071289;28;20048;-78
2022/06/02 13:14:22;;;;;;;6.15;1.13;;;25.20;79.20;;;;;;4992415;28;20422;-79
2022/06/02 13:17:13;;;;;;;5.50;0.95;;;25.20;70.90;;;;;;5058405;28;20091;-79
2022/06/02 13:19:59;;;;;;;4.82;1.13;;;25.00;67.90;;;;;;5055002;28;20048;-78
2022/06/02 13:23:04;;;;;;;5.80;1.63;;;25.60;72.50;;;;;;5070999;28;20048;-78
2022/06/02 13:26:01;;;;;;;5.72;1.40;;;26.00;64.40;;;;;;5070805;28;20057;-81
2022/06/02 13:28:51;;;;;;;9.80;1.30;;;26.40;68.60;;;;;;5070818;28;20049;-79
2022/06/02 13:31:45;;;;;;;4.95;1.27;;;26.60;64.10;;;;;;5070944;28;20091;-80
2022/06/02 13:34:32;;;;;;;5.37;1.10;;;26.30;59.70;;;;;;5057766;28;20048;-81
2022/06/02 13:37:07;;;;;;;2.97;0.88;;;26.30;62.20;;;;;;5056690;28;20051;-78
2022/06/02 13:40:04;;;;;;;4.78;0.90;;;26.30;60.70;;;;;;5052372;28;20064;-79
2022/06/02 13:42:59;;;;;;;4.93;1.10;;;26.70;57.80;;;;;;5070660;28;20408;-78
2022/06/02 13:45:50;;;;;;;5.40;1.00;;;26.60;58.10;;;;;;5052603;28;20049;-78
2022/06/02 13:48:53;;;;;;;6.32;1.20;;;26.20;60.00;;;;;;5070173;28;20064;-77
2022/06/02 13:51:58;;;;;;;4.55;0.80;;;26.90;58.70;;;;;;5072459;28;20056;-78
2022/06/02 13:57:32;;;;;;;2.92;0.85;;;25.70;52.90;;;;;;5072140;28;20094;-79
2022/06/02 14:00:29;;;;;;;4.63;0.90;;;26.10;51.90;;;;;;5052454;28;20051;-78
2022/06/02 14:03:45;;;;;;;1.88;0.68;;;25.70;49.10;;;;;;5036258;28;20044;-78
2022/06/02 14:06:33;;;;;;;2.33;0.77;;;26.30;51.00;;;;;;5060409;28;20053;-78
2022/06/02 14:09:30;;;;;;;3.38;0.60;;;27.10;48.60;;;;;;5053888;28;20476;-80
2022/06/02 14:12:17;;;;;;;1.92;0.73;;;28.10;48.00;;;;;;5053020;28;20061;-79
2022/06/02 14:14:53;;;;;;;4.20;0.80;;;28.40;46.20;;;;;;5073518;28;20395;-83
2022/06/02 14:17:33;;;;;;;3.70;1.00;;;28.40;46.70;;;;;;5071594;28;20094;-80
2022/06/02 14:20:21;;;;;;;2.65;0.80;;;29.00;46.00;;;;;;5055735;28;20056;-79
2022/06/02 14:23:13;;;;;;;3.40;1.00;;;29.30;45.90;;;;;;5073763;28;20461;-79
2022/06/02 14:25:48;;;;;;;2.38;0.75;;;29.50;44.80;;;;;;5074509;28;20146;-81
2022/06/02 14:28:27;;;;;;;2.60;0.80;;;29.80;44.50;;;;;;5079906;28;20106;-82
2022/06/02 14:31:21;;;;;;;3.30;0.82;;;29.50;44.60;;;;;;5074056;28;20079;-83
2022/06/02 14:33:58;;;;;;;5.25;1.33;;;29.30;46.20;;;;;;5057030;28;20059;-80
2022/06/02 14:36:55;;;;;;;4.28;0.98;;;29.50;45.00;;;;;;5073688;28;20057;-80
2022/06/02 14:39:50;;;;;;;3.85;1.15;;;29.50;44.30;;;;;;5055566;28;20131;-79
2022/06/02 14:43:04;;;;;;;5.30;1.27;;;29.30;45.40;;;;;;5059758;28;20161;-81
2022/06/02 14:45:45;;;;;;;3.70;0.77;;;29.80;43.80;;;;;;5075395;28;20052;-81
2022/06/02 14:48:42;;;;;;;4.45;1.10;;;29.10;44.30;;;;;;5073466;28;20109;-78
2022/06/02 14:51:16;;;;;;;4.00;0.80;;;28.90;44.70;;;;;;5056485;28;20056;-81
2022/06/02 14:54:23;;;;;;;4.22;1.10;;;28.60;45.80;;;;;;5056810;28;20135;-81
2022/06/02 14:57:10;;;;;;;3.13;1.00;;;28.70;46.50;;;;;;5029718;28;20105;-83